createdAt,value
2022-12-15T00:02:05.626Z,93.58
2022-12-15T00:04:50.626Z,93.76
2022-12-15T00:07:35.625Z,93.75
2022-12-15T00:10:20.343Z,94.04
2022-12-15T00:13:05.510Z,93.82
2022-12-15T00:15:50.434Z,94.02
2022-12-15T00:18:35.239Z,94.66
2022-12-15T00:21:20.018Z,93.84
2022-12-15T00:24:04.858Z,94.26
2022-12-15T00:26:49.718Z,93.93
2022-12-15T00:29:34.498Z,93.89
2022-12-15T00:32:19.550Z,93.60
2022-12-15T00:35:04.531Z,93.38
2022-12-15T00:37:52.718Z,94.06
2022-12-15T00:40:19.126Z,93.51
2022-12-15T00:42:45.588Z,92.83
2022-12-15T00:45:16.242Z,92.92
2022-12-15T00:47:42.652Z,92.64
2022-12-15T00:50:27.742Z,92.88
2022-12-15T00:53:12.795Z,92.65
2022-12-15T00:55:57.460Z,92.64
2022-12-15T00:58:42.562Z,92.81
2022-12-15T01:01:28.763Z,92.36
2022-12-15T01:04:14.068Z,92.01
2022-12-15T01:06:59.351Z,91.80
2022-12-15T01:09:44.313Z,92.41
2022-12-15T01:12:29.133Z,92.22
2022-12-15T01:15:13.923Z,91.84
2022-12-15T01:17:58.800Z,92.07
2022-12-15T01:20:25.205Z,91.54
2022-12-15T01:22:54.075Z,91.71
2022-12-15T01:25:22.899Z,91.75
2022-12-15T01:27:49.771Z,91.61
2022-12-15T01:30:23.738Z,92.14
2022-12-15T01:32:50.221Z,91.52
2022-12-15T01:35:17.598Z,91.29
2022-12-15T01:37:44.714Z,91.41
2022-12-15T01:40:35.408Z,91.81
2022-12-15T01:43:02.206Z,91.17
2022-12-15T01:45:28.555Z,90.97
2022-12-15T01:47:56.366Z,91.19
2022-12-15T01:50:23.811Z,90.33
2022-12-15T01:52:50.659Z,91.02
2022-12-15T01:55:18.756Z,91.24
2022-12-15T01:57:46.798Z,91.05
2022-12-15T02:00:14.336Z,90.75
2022-12-15T02:02:41.277Z,90.79
2022-12-15T02:05:08.050Z,90.93
2022-12-15T02:07:34.421Z,90.81
2022-12-15T02:10:03.605Z,91.50
2022-12-15T02:13:04.460Z,91.00
2022-12-15T02:15:44.711Z,90.73
2022-12-15T02:18:22.650Z,91.52
2022-12-15T02:20:53.331Z,91.24
2022-12-15T02:23:40.644Z,91.27
2022-12-15T02:26:27.295Z,91.27
2022-12-15T02:29:15.671Z,90.95
2022-12-15T02:31:51.448Z,91.43
2022-12-15T02:34:34.918Z,92.16
2022-12-15T02:37:20.926Z,90.86
2022-12-15T02:39:47.366Z,90.47
2022-12-15T02:42:14.058Z,90.21
2022-12-15T02:44:53.983Z,90.26
2022-12-15T02:47:46.181Z,90.59
2022-12-15T02:50:40.567Z,90.68
2022-12-15T02:53:20.275Z,90.66
2022-12-15T02:56:08.447Z,90.27
2022-12-15T02:58:48.522Z,90.75
2022-12-15T03:01:23.078Z,90.39
2022-12-15T03:03:50.131Z,89.89
2022-12-15T03:06:16.861Z,89.92
2022-12-15T03:08:43.262Z,90.13
2022-12-15T03:11:09.643Z,89.38
2022-12-15T03:13:36.183Z,90.30
2022-12-15T03:16:03.055Z,89.71
2022-12-15T03:18:29.544Z,90.81
2022-12-15T03:20:55.925Z,90.89
2022-12-15T03:23:23.050Z,90.94
2022-12-15T03:25:50.351Z,90.38
2022-12-15T03:28:16.933Z,90.08
2022-12-15T03:30:43.455Z,90.08
2022-12-15T03:33:11.266Z,90.04
2022-12-15T03:35:37.647Z,90.08
2022-12-15T03:38:04.075Z,90.22
2022-12-15T03:40:30.503Z,89.92
2022-12-15T03:42:57.984Z,89.91
2022-12-15T03:45:26.491Z,89.31
2022-12-15T03:47:54.207Z,89.67
2022-12-15T03:50:23.424Z,89.83
2022-12-15T03:52:52.113Z,90.11
2022-12-15T03:55:19.015Z,89.53
2022-12-15T03:57:45.434Z,90.02
2022-12-15T04:00:14.879Z,89.90
2022-12-15T04:02:42.504Z,90.81
2022-12-15T04:05:09.544Z,91.17
2022-12-15T04:07:36.032Z,91.55
2022-12-15T04:10:02.443Z,91.52
2022-12-15T04:12:28.850Z,92.09
2022-12-15T04:14:55.328Z,92.71
2022-12-15T04:17:21.741Z,92.33
2022-12-15T04:20:06.688Z,92.23
2022-12-15T04:22:33.105Z,92.89
2022-12-15T04:25:18.075Z,92.31
2022-12-15T04:28:03.213Z,92.18
2022-12-15T04:30:49.596Z,91.83
2022-12-15T04:33:35.418Z,91.86
2022-12-15T04:36:20.761Z,92.41
2022-12-15T04:39:05.823Z,91.82
2022-12-15T04:41:51.032Z,91.68
2022-12-15T04:44:36.212Z,92.23
2022-12-15T04:47:21.862Z,92.64
2022-12-15T04:50:07.068Z,92.36
2022-12-15T04:52:51.880Z,92.07
2022-12-15T04:55:36.652Z,92.01
2022-12-15T04:58:26.694Z,91.37
2022-12-15T05:01:12.303Z,90.80
2022-12-15T05:03:57.697Z,90.79
2022-12-15T05:06:42.395Z,91.03
2022-12-15T05:09:27.209Z,90.90
2022-12-15T05:12:12.586Z,90.63
2022-12-15T05:14:57.651Z,89.90
2022-12-15T05:17:42.557Z,90.56
2022-12-15T05:20:28.101Z,90.24
2022-12-15T05:23:14.522Z,90.52
2022-12-15T05:25:59.699Z,90.66
2022-12-15T05:28:44.647Z,90.81
2022-12-15T05:31:29.509Z,91.04
2022-12-15T05:34:02.636Z,90.97
2022-12-15T05:36:31.451Z,90.58
2022-12-15T05:38:57.867Z,90.61
2022-12-15T05:41:24.459Z,90.17
2022-12-15T05:43:50.847Z,90.21
2022-12-15T05:46:17.291Z,89.94
2022-12-15T05:48:43.830Z,89.46
2022-12-15T05:51:11.457Z,90.00
2022-12-15T05:53:38.999Z,89.76
2022-12-15T05:56:07.520Z,89.74
2022-12-15T05:58:33.952Z,89.47
2022-12-15T06:01:14.295Z,88.96
2022-12-15T06:03:41.828Z,89.97
2022-12-15T06:06:09.556Z,90.85
2022-12-15T06:08:37.630Z,91.45
2022-12-15T06:11:04.643Z,91.45
2022-12-15T06:13:33.499Z,91.26
2022-12-15T06:16:21.025Z,91.02
2022-12-15T06:18:53.019Z,90.80
2022-12-15T06:21:26.251Z,90.59
2022-12-15T06:23:53.014Z,90.77
2022-12-15T06:26:23.302Z,90.48
2022-12-15T06:28:50.654Z,90.50
2022-12-15T06:31:22.517Z,89.94
2022-12-15T06:33:50.055Z,90.60
2022-12-15T06:36:17.731Z,89.50
2022-12-15T06:38:44.696Z,90.10
2022-12-15T06:41:18.177Z,90.02
2022-12-15T06:43:50.011Z,90.02
2022-12-15T06:46:16.630Z,90.32
2022-12-15T06:48:45.788Z,90.06
2022-12-15T06:51:17.176Z,90.44
2022-12-15T06:53:48.723Z,89.14
2022-12-15T06:56:30.728Z,89.06
2022-12-15T06:59:00.121Z,89.10
2022-12-15T07:01:26.740Z,89.06
2022-12-15T07:03:54.026Z,88.77
2022-12-15T07:06:21.498Z,88.66
2022-12-15T07:08:52.666Z,89.49
2022-12-15T07:11:20.909Z,89.78
2022-12-15T07:13:51.522Z,89.02
2022-12-15T07:16:18.677Z,88.96
2022-12-15T07:18:45.378Z,88.83
2022-12-15T07:21:11.820Z,88.70
2022-12-15T07:23:56.339Z,89.58
2022-12-15T07:26:23.804Z,89.44
2022-12-15T07:28:50.289Z,89.95
2022-12-15T07:31:17.625Z,89.24
2022-12-15T07:33:44.192Z,88.72
2022-12-15T07:36:10.980Z,88.66
2022-12-15T07:38:37.488Z,89.20
2022-12-15T07:41:06.788Z,89.63
2022-12-15T07:43:33.921Z,89.58
2022-12-15T07:46:00.818Z,90.05
2022-12-15T07:48:27.508Z,89.90
2022-12-15T07:51:02.857Z,90.08
2022-12-15T07:53:33.780Z,89.74
2022-12-15T07:56:07.570Z,89.85
2022-12-15T07:58:35.403Z,89.95
2022-12-15T08:01:03.388Z,90.66
2022-12-15T08:03:30.912Z,91.26
2022-12-15T08:06:03.665Z,91.03
2022-12-15T08:08:31.160Z,90.59
2022-12-15T08:10:57.904Z,91.42
2022-12-15T08:14:00.241Z,91.67
2022-12-15T08:16:11.634Z,90.64
2022-12-15T08:18:39.468Z,91.35
2022-12-15T08:21:10.288Z,91.67
2022-12-15T08:23:36.959Z,92.01
2022-12-15T08:26:09.416Z,91.69
2022-12-15T08:28:36.639Z,91.50
2022-12-15T08:31:04.677Z,92.45
2022-12-15T08:33:31.864Z,92.31
2022-12-15T08:36:05.013Z,91.83
2022-12-15T08:38:31.796Z,91.25
2022-12-15T08:40:58.707Z,91.48
2022-12-15T08:43:25.093Z,90.67
2022-12-15T08:45:51.589Z,90.92
2022-12-15T08:48:18.076Z,91.48
2022-12-15T08:50:45.841Z,91.47
2022-12-15T08:53:30.810Z,91.83
2022-12-15T08:56:05.730Z,91.41
2022-12-15T08:58:32.725Z,91.64
2022-12-15T09:01:06.910Z,91.49
2022-12-15T09:03:34.557Z,92.00
2022-12-15T09:06:10.183Z,92.33
2022-12-15T09:08:36.570Z,93.00
2022-12-15T09:11:05.426Z,93.18
2022-12-15T09:13:32.940Z,94.80
2022-12-15T09:16:09.859Z,94.60
2022-12-15T09:18:37.317Z,94.47
2022-12-15T09:21:05.775Z,95.05
2022-12-15T09:23:32.779Z,94.99
2022-12-15T09:26:04.678Z,94.53
2022-12-15T09:28:32.061Z,94.25
2022-12-15T09:31:08.854Z,95.47
2022-12-15T09:33:36.245Z,95.26
2022-12-15T09:36:03.696Z,94.07
2022-12-15T09:38:30.969Z,94.42
2022-12-15T09:40:57.495Z,94.73
2022-12-15T09:43:35.244Z,94.81
2022-12-15T09:46:20.675Z,93.84
2022-12-15T09:48:48.041Z,93.39
2022-12-15T09:51:16.937Z,93.04
2022-12-15T09:53:59.249Z,93.27
2022-12-15T09:56:53.208Z,92.91
2022-12-15T09:59:46.593Z,92.71
2022-12-15T10:02:27.008Z,93.01
2022-12-15T10:05:15.143Z,92.86
2022-12-15T10:07:50.535Z,92.92
2022-12-15T10:10:25.960Z,92.09
2022-12-15T10:13:04.888Z,92.26
2022-12-15T10:15:41.475Z,92.03
2022-12-15T10:18:14.042Z,91.81
2022-12-15T10:20:40.530Z,91.27
2022-12-15T10:23:13.630Z,91.76
2022-12-15T10:25:46.129Z,91.85
2022-12-15T10:28:44.783Z,90.91
2022-12-15T10:31:32.795Z,90.79
2022-12-15T10:34:10.172Z,90.35
2022-12-15T10:36:36.953Z,90.69
2022-12-15T10:39:03.440Z,90.38
2022-12-15T10:41:32.419Z,89.64
2022-12-15T10:43:58.897Z,89.15
2022-12-15T10:46:27.905Z,88.72
2022-12-15T10:48:57.518Z,87.95
2022-12-15T10:51:32.328Z,88.53
2022-12-15T10:54:19.052Z,88.23
2022-12-15T10:56:53.876Z,88.89
2022-12-15T10:59:36.040Z,89.22
2022-12-15T11:02:24.128Z,88.79
2022-12-15T11:05:02.945Z,88.38
2022-12-15T11:07:36.410Z,88.33
2022-12-15T11:10:14.034Z,88.38
2022-12-15T11:12:58.104Z,88.23
2022-12-15T11:15:24.872Z,87.89
2022-12-15T11:18:00.882Z,87.36
2022-12-15T11:20:31.652Z,88.02
2022-12-15T11:23:04.925Z,87.17
2022-12-15T11:25:45.209Z,86.97
2022-12-15T11:28:18.519Z,87.37
2022-12-15T11:30:59.988Z,87.45
2022-12-15T11:33:26.428Z,86.71
2022-12-15T11:36:01.297Z,86.50
2022-12-15T11:38:44.457Z,85.14
2022-12-15T11:41:22.888Z,86.39
2022-12-15T11:44:04.260Z,86.34
2022-12-15T11:46:51.260Z,86.07
2022-12-15T11:49:50.854Z,85.90
2022-12-15T11:52:17.203Z,85.57
2022-12-15T11:55:10.857Z,85.60
2022-12-15T11:58:06.288Z,84.78
2022-12-15T12:00:39.940Z,85.47
2022-12-15T12:03:31.904Z,85.37
2022-12-15T12:06:13.291Z,85.31
2022-12-15T12:08:45.702Z,85.42
2022-12-15T12:11:17.016Z,84.32
2022-12-15T12:14:11.791Z,84.61
2022-12-15T12:16:46.981Z,83.95
2022-12-15T12:19:24.197Z,84.02
2022-12-15T12:21:56.137Z,84.73
2022-12-15T12:24:37.448Z,83.25
2022-12-15T12:27:27.469Z,83.21
2022-12-15T12:30:00.736Z,83.49
2022-12-15T12:32:40.343Z,82.92
2022-12-15T12:38:10.161Z,81.76
2022-12-15T12:41:02.605Z,82.66
2022-12-15T12:44:07.650Z,82.36
2022-12-15T12:46:39.207Z,82.13
2022-12-15T12:49:12.436Z,80.56
2022-12-15T12:51:40.548Z,81.39
2022-12-15T12:54:37.991Z,81.44
2022-12-15T12:57:13.529Z,81.43
2022-12-15T13:00:00.757Z,81.00
2022-12-15T13:02:27.216Z,81.24
2022-12-15T13:05:27.511Z,81.97
2022-12-15T13:08:13.803Z,81.45
2022-12-15T13:10:42.432Z,81.60
2022-12-15T13:13:42.080Z,81.50
2022-12-15T13:16:24.500Z,82.05
2022-12-15T13:19:09.197Z,81.05
2022-12-15T13:21:41.736Z,80.60
2022-12-15T13:24:26.021Z,80.92
2022-12-15T13:26:52.877Z,81.90
2022-12-15T13:29:23.038Z,81.48
2022-12-15T13:31:50.150Z,80.96
2022-12-15T13:34:20.240Z,81.04
2022-12-15T13:36:54.802Z,81.38
2022-12-15T13:39:27.706Z,81.82
2022-12-15T13:42:31.529Z,81.15
2022-12-15T13:44:45.364Z,81.07
2022-12-15T13:47:30.766Z,82.47
2022-12-15T13:50:06.192Z,81.95
2022-12-15T13:55:38.237Z,81.95
2022-12-15T13:58:16.250Z,81.40
2022-12-15T14:00:56.764Z,81.29
2022-12-15T14:03:23.719Z,82.15
2022-12-15T14:05:57.048Z,81.61
2022-12-15T14:08:27.226Z,81.59
2022-12-15T14:10:55.847Z,82.14
2022-12-15T14:13:34.887Z,81.59
2022-12-15T14:16:05.298Z,82.30
2022-12-15T14:18:34.193Z,81.75
2022-12-15T14:21:02.225Z,82.18
2022-12-15T14:23:40.356Z,82.33
2022-12-15T14:26:09.246Z,82.82
2022-12-15T14:28:37.718Z,81.84
2022-12-15T14:31:07.218Z,81.64
2022-12-15T14:33:36.518Z,81.98
2022-12-15T14:36:08.083Z,82.64
2022-12-15T14:38:57.708Z,82.22
2022-12-15T14:41:28.226Z,81.99
2022-12-15T14:44:31.440Z,81.19
2022-12-15T14:46:48.759Z,82.31
2022-12-15T14:49:20.794Z,81.75
2022-12-15T14:51:50.881Z,82.05
2022-12-15T14:54:37.873Z,81.79
2022-12-15T14:57:21.962Z,81.97
2022-12-15T14:59:49.075Z,81.71
2022-12-15T15:02:26.966Z,82.44
2022-12-15T15:03:11.540Z,82.59
2022-12-15T15:05:03.299Z,82.34
2022-12-15T15:07:34.551Z,82.29
2022-12-15T15:10:01.711Z,82.94
2022-12-15T15:12:48.362Z,82.64
2022-12-15T15:15:17.103Z,82.23
2022-12-15T15:17:54.913Z,82.16
2022-12-15T15:20:36.006Z,82.57
2022-12-15T15:23:13.314Z,83.11
2022-12-15T15:25:42.557Z,82.69
2022-12-15T15:28:19.201Z,83.51
2022-12-15T15:30:48.526Z,83.07
2022-12-15T15:33:16.483Z,83.34
2022-12-15T15:35:44.278Z,82.48
2022-12-15T15:38:18.700Z,83.36
2022-12-15T15:40:49.895Z,83.27
2022-12-15T15:43:16.525Z,83.29
2022-12-15T15:45:43.185Z,82.33
2022-12-15T15:48:17.475Z,82.51
2022-12-15T15:50:44.292Z,82.48
2022-12-15T15:53:16.506Z,82.38
2022-12-15T15:55:43.310Z,82.57
2022-12-15T15:58:13.074Z,82.49
2022-12-15T16:00:40.118Z,83.19
2022-12-15T16:03:07.178Z,82.13
2022-12-15T16:05:33.931Z,82.33
2022-12-15T16:08:00.985Z,82.47
2022-12-15T16:10:28.071Z,83.03
2022-12-15T16:12:55.772Z,82.80
2022-12-15T16:15:25.812Z,82.86
2022-12-15T16:17:52.961Z,83.18
2022-12-15T16:20:21.530Z,83.11
2022-12-15T16:22:51.110Z,83.01
2022-12-15T16:25:20.113Z,83.46
2022-12-15T16:27:46.616Z,82.95
2022-12-15T16:30:18.511Z,82.57
2022-12-15T16:32:45.015Z,82.05
2022-12-15T16:35:12.502Z,82.59
2022-12-15T16:37:40.042Z,81.93
2022-12-15T16:40:22.783Z,82.92
2022-12-15T16:42:58.276Z,82.62
2022-12-15T16:45:27.251Z,82.84
2022-12-15T16:47:53.784Z,82.16
2022-12-15T16:50:26.184Z,82.81
2022-12-15T16:52:53.950Z,82.23
2022-12-15T16:55:25.290Z,82.30
2022-12-15T16:57:52.626Z,82.49
2022-12-15T17:00:22.124Z,82.32
2022-12-15T17:02:49.193Z,81.42
2022-12-15T17:05:16.091Z,81.69
2022-12-15T17:07:43.558Z,82.24
2022-12-15T17:10:18.346Z,81.71
2022-12-15T17:12:45.177Z,82.33
2022-12-15T17:15:26.530Z,82.66
2022-12-15T17:17:54.945Z,82.59
2022-12-15T17:20:31.555Z,82.36
2022-12-15T17:23:19.621Z,82.32
2022-12-15T17:26:21.128Z,82.84
2022-12-15T17:28:36.647Z,82.70
2022-12-15T17:31:03.801Z,83.22
2022-12-15T17:33:33.239Z,83.18
2022-12-15T17:36:02.099Z,83.58
2022-12-15T17:38:28.685Z,83.62
2022-12-15T17:40:55.464Z,83.28
2022-12-15T17:43:29.476Z,82.96
2022-12-15T17:46:00.107Z,83.40
2022-12-15T17:48:26.501Z,83.47
2022-12-15T17:50:53.300Z,83.58
2022-12-15T17:53:21.266Z,83.58
2022-12-15T17:55:49.671Z,83.67
2022-12-15T17:58:18.818Z,84.11
2022-12-15T18:00:49.160Z,84.41
2022-12-15T18:03:16.517Z,84.14
2022-12-15T18:05:43.273Z,83.92
2022-12-15T18:08:16.303Z,83.46
2022-12-15T18:10:42.752Z,82.95
2022-12-15T18:13:33.305Z,83.67
2022-12-15T18:16:02.010Z,83.29
2022-12-15T18:18:28.743Z,83.57
2022-12-15T18:21:00.209Z,83.83
2022-12-15T18:23:30.568Z,83.21
2022-12-15T18:26:02.669Z,83.28
2022-12-15T18:28:31.996Z,83.28
2022-12-15T18:31:10.443Z,83.09
2022-12-15T18:33:36.950Z,83.14
2022-12-15T18:36:03.599Z,83.12
2022-12-15T18:38:30.200Z,83.73
2022-12-15T18:41:00.343Z,83.34
2022-12-15T18:43:32.536Z,83.42
2022-12-15T18:45:59.318Z,83.55
2022-12-15T18:48:31.277Z,83.12
2022-12-15T18:50:59.287Z,83.34
2022-12-15T18:53:34.828Z,83.37
2022-12-15T18:56:06.276Z,82.89
2022-12-15T18:58:37.822Z,82.53
2022-12-15T19:01:05.471Z,82.95
2022-12-15T19:03:32.742Z,83.17
2022-12-15T19:05:59.312Z,83.48
2022-12-15T19:08:25.894Z,83.19
2022-12-15T19:10:55.922Z,83.10
2022-12-15T19:13:25.427Z,83.05
2022-12-15T19:15:53.224Z,83.20
2022-12-15T19:18:40.750Z,83.45
2022-12-15T19:21:48.443Z,83.63
2022-12-15T19:24:44.908Z,83.40
2022-12-15T19:27:13.236Z,83.56
2022-12-15T19:29:40.463Z,83.83
2022-12-15T19:32:07.788Z,83.46
2022-12-15T19:34:34.803Z,83.74
2022-12-15T19:37:01.875Z,83.69
2022-12-15T19:39:29.149Z,83.77
2022-12-15T19:41:55.960Z,83.44
2022-12-15T19:44:22.456Z,83.86
2022-12-15T19:46:48.876Z,84.22
2022-12-15T19:49:15.371Z,83.71
2022-12-15T19:51:42.559Z,83.79
2022-12-15T19:54:16.076Z,84.25
2022-12-15T19:56:42.517Z,83.89
2022-12-15T19:59:24.610Z,83.81
2022-12-15T20:01:51.766Z,83.92
2022-12-15T20:04:22.436Z,83.57
2022-12-15T20:06:50.570Z,83.87
2022-12-15T20:09:18.531Z,84.42
2022-12-15T20:11:45.507Z,84.49
2022-12-15T20:14:13.430Z,84.42
2022-12-15T20:16:40.105Z,84.26
2022-12-15T20:19:06.910Z,84.51
2022-12-15T20:21:38.789Z,83.41
2022-12-15T20:24:08.108Z,84.48
2022-12-15T20:26:36.331Z,84.08
2022-12-15T20:29:03.759Z,84.37
2022-12-15T20:31:30.261Z,84.36
2022-12-15T20:33:56.772Z,83.89
2022-12-15T20:36:25.949Z,83.70
2022-12-15T20:38:53.178Z,83.79
2022-12-15T20:41:25.162Z,84.19
2022-12-15T20:43:52.550Z,84.20
2022-12-15T20:46:33.583Z,83.83
2022-12-15T20:49:00.163Z,84.29
2022-12-15T20:51:32.109Z,83.81
2022-12-15T20:54:00.836Z,83.79
2022-12-15T20:56:27.980Z,83.25
2022-12-15T20:58:55.971Z,83.83
2022-12-15T21:01:28.534Z,83.34
2022-12-15T21:03:57.572Z,84.19
2022-12-15T21:06:25.327Z,83.79
2022-12-15T21:08:52.292Z,83.97
2022-12-15T21:11:24.405Z,83.68
2022-12-15T21:13:52.939Z,83.59
2022-12-15T21:16:22.170Z,83.73
2022-12-15T21:19:18.640Z,84.08
2022-12-15T21:21:38.513Z,84.04
2022-12-15T21:24:25.594Z,83.74
2022-12-15T21:26:52.269Z,83.76
2022-12-15T21:29:21.326Z,83.67
2022-12-15T21:31:47.822Z,83.50
2022-12-15T21:34:14.393Z,84.06
2022-12-15T21:36:42.965Z,83.82
2022-12-15T21:39:13.224Z,83.58
2022-12-15T21:41:41.801Z,83.62
2022-12-15T21:44:15.069Z,83.61
2022-12-15T21:46:41.769Z,83.59
2022-12-15T21:49:15.148Z,84.01
2022-12-15T21:51:43.803Z,83.83
2022-12-15T21:54:30.626Z,84.13
2022-12-15T21:56:58.207Z,83.83
2022-12-15T21:59:26.864Z,83.62
2022-12-15T22:01:55.122Z,83.82
2022-12-15T22:04:41.620Z,83.96
2022-12-15T22:07:10.978Z,84.19
2022-12-15T22:09:37.368Z,83.55
2022-12-15T22:12:04.508Z,83.68
2022-12-15T22:14:34.328Z,83.73
2022-12-15T22:17:17.112Z,84.07
2022-12-15T22:19:43.868Z,83.96
2022-12-15T22:22:10.380Z,84.05
2022-12-15T22:24:36.794Z,83.63
2022-12-15T22:27:03.288Z,84.69
2022-12-15T22:29:31.498Z,84.13
2022-12-15T22:31:58.164Z,84.14
2022-12-15T22:34:26.691Z,84.07
2022-12-15T22:36:53.101Z,83.77
2022-12-15T22:39:21.513Z,83.95
2022-12-15T22:41:53.522Z,84.61
2022-12-15T22:44:26.258Z,84.57
2022-12-15T22:46:54.779Z,84.62
2022-12-15T22:49:24.139Z,84.71
2022-12-15T22:51:50.721Z,84.30
2022-12-15T22:54:24.880Z,84.60
2022-12-15T22:57:05.909Z,84.64
2022-12-15T22:59:41.100Z,84.59
2022-12-15T23:02:08.609Z,84.42
2022-12-15T23:04:35.203Z,84.40
2022-12-15T23:07:04.104Z,84.97
2022-12-15T23:09:30.899Z,85.21
2022-12-15T23:11:58.886Z,85.02
2022-12-15T23:14:43.873Z,85.43
2022-12-15T23:17:11.117Z,84.94
2022-12-15T23:19:37.551Z,85.50
2022-12-15T23:22:03.992Z,85.44
2022-12-15T23:24:31.230Z,85.56
2022-12-15T23:26:57.682Z,84.99
2022-12-15T23:29:24.787Z,85.03
2022-12-15T23:31:51.190Z,84.70
2022-12-15T23:34:18.431Z,84.58
2022-12-15T23:36:44.842Z,84.63
2022-12-15T23:39:11.287Z,84.82
2022-12-15T23:41:37.671Z,85.08
2022-12-15T23:44:05.562Z,85.51
2022-12-15T23:46:32.159Z,85.51
2022-12-15T23:48:59.584Z,85.76
2022-12-15T23:51:25.990Z,85.40
2022-12-15T23:53:52.583Z,85.12
2022-12-15T23:56:23.826Z,84.78
2022-12-15T23:58:58.167Z,85.95
